sensor_id;sensor_type;location;lat;lon;timestamp;pressure;altitude;pressure_sealevel;temperature;humidity
47811;BME280;33575;52.600;7.318;2023-05-24T00:00:38;102170.26;;;9.93;82.41
47811;BME280;33575;52.600;7.318;2023-05-24T00:03:09;102163.93;;;9.93;82.36
47811;BME280;33575;52.600;7.318;2023-05-24T00:05:39;102159.26;;;9.95;82.37
47811;BME280;33575;52.600;7.318;2023-05-24T00:08:10;102161.07;;;9.95;82.39
47811;BME280;33575;52.600;7.318;2023-05-24T00:10:40;102161.81;;;9.97;82.26
47811;BME280;33575;52.600;7.318;2023-05-24T00:13:10;102163.75;;;9.96;82.26
47811;BME280;33575;52.600;7.318;2023-05-24T00:15:41;102160.34;;;9.96;82.21
47811;BME280;33575;52.600;7.318;2023-05-24T00:18:12;102163.21;;;9.99;82.05
47811;BME280;33575;52.600;7.318;2023-05-24T00:20:43;102160.00;;;9.96;82.03
47811;BME280;33575;52.600;7.318;2023-05-24T00:23:13;102158.02;;;9.91;82.48
47811;BME280;33575;52.600;7.318;2023-05-24T00:25:43;102154.53;;;9.89;82.14
47811;BME280;33575;52.600;7.318;2023-05-24T00:28:14;102155.62;;;9.86;82.39
47811;BME280;33575;52.600;7.318;2023-05-24T00:30:44;102155.51;;;9.78;82.88
47811;BME280;33575;52.600;7.318;2023-05-24T00:33:14;102152.41;;;9.63;83.17
47811;BME280;33575;52.600;7.318;2023-05-24T00:35:45;102147.73;;;9.63;82.83
47811;BME280;33575;52.600;7.318;2023-05-24T00:38:15;102145.80;;;9.59;83.51
47811;BME280;33575;52.600;7.318;2023-05-24T00:40:46;102145.55;;;9.54;83.52
47811;BME280;33575;52.600;7.318;2023-05-24T00:43:16;102148.26;;;9.45;84.24
47811;BME280;33575;52.600;7.318;2023-05-24T00:45:47;102149.31;;;9.35;84.82
47811;BME280;33575;52.600;7.318;2023-05-24T00:48:18;102147.37;;;9.33;84.83
47811;BME280;33575;52.600;7.318;2023-05-24T00:50:48;102143.30;;;9.38;84.60
47811;BME280;33575;52.600;7.318;2023-05-24T00:53:19;102139.83;;;9.39;84.53
47811;BME280;33575;52.600;7.318;2023-05-24T00:55:49;102140.72;;;9.40;84.93
47811;BME280;33575;52.600;7.318;2023-05-24T00:58:20;102140.69;;;9.45;84.44
47811;BME280;33575;52.600;7.318;2023-05-24T01:00:50;102137.21;;;9.50;84.32
47811;BME280;33575;52.600;7.318;2023-05-24T01:03:20;102132.71;;;9.44;85.14
47811;BME280;33575;52.600;7.318;2023-05-24T01:05:51;102122.25;;;9.44;85.28
47811;BME280;33575;52.600;7.318;2023-05-24T01:08:33;102117.40;;;9.35;86.24
47811;BME280;33575;52.600;7.318;2023-05-24T01:10:57;102118.11;;;9.30;85.63
47811;BME280;33575;52.600;7.318;2023-05-24T01:13:26;102111.98;;;9.24;86.54
47811;BME280;33575;52.600;7.318;2023-05-24T01:15:58;102111.80;;;9.19;86.22
47811;BME280;33575;52.600;7.318;2023-05-24T01:18:27;102111.86;;;9.05;87.15
47811;BME280;33575;52.600;7.318;2023-05-24T01:21:02;102108.17;;;8.96;87.03
47811;BME280;33575;52.600;7.318;2023-05-24T01:23:34;102111.57;;;8.82;88.26
47811;BME280;33575;52.600;7.318;2023-05-24T01:26:13;102109.31;;;8.99;86.93
47811;BME280;33575;52.600;7.318;2023-05-24T01:28:26;102116.42;;;8.91;87.46
47811;BME280;33575;52.600;7.318;2023-05-24T01:30:57;102119.90;;;8.89;87.40
47811;BME280;33575;52.600;7.318;2023-05-24T01:33:27;102119.66;;;8.94;87.11
47811;BME280;33575;52.600;7.318;2023-05-24T01:35:57;102125.31;;;8.96;86.91
47811;BME280;33575;52.600;7.318;2023-05-24T01:38:28;102128.21;;;8.89;87.62
47811;BME280;33575;52.600;7.318;2023-05-24T01:41:04;102125.32;;;8.89;87.53
47811;BME280;33575;52.600;7.318;2023-05-24T01:43:34;102128.42;;;8.97;86.84
47811;BME280;33575;52.600;7.318;2023-05-24T01:46:08;102128.58;;;8.92;87.29
47811;BME280;33575;52.600;7.318;2023-05-24T01:48:36;102133.98;;;8.89;87.35
47811;BME280;33575;52.600;7.318;2023-05-24T01:51:06;102131.59;;;8.92;86.89
47811;BME280;33575;52.600;7.318;2023-05-24T01:53:33;102126.43;;;8.99;86.70
47811;BME280;33575;52.600;7.318;2023-05-24T01:56:04;102122.01;;;9.10;86.35
47811;BME280;33575;52.600;7.318;2023-05-24T01:58:33;102124.41;;;9.19;86.07
47811;BME280;33575;52.600;7.318;2023-05-24T02:01:03;102128.65;;;9.18;86.65
47811;BME280;33575;52.600;7.318;2023-05-24T02:03:33;102119.77;;;9.21;86.61
47811;BME280;33575;52.600;7.318;2023-05-24T02:06:04;102114.92;;;9.23;86.35
47811;BME280;33575;52.600;7.318;2023-05-24T02:08:34;102114.55;;;9.24;86.69
47811;BME280;33575;52.600;7.318;2023-05-24T02:11:05;102110.49;;;9.22;86.79
47811;BME280;33575;52.600;7.318;2023-05-24T02:13:35;102111.09;;;9.19;87.20
47811;BME280;33575;52.600;7.318;2023-05-24T02:16:06;102113.90;;;9.14;87.30
47811;BME280;33575;52.600;7.318;2023-05-24T02:18:36;102110.13;;;9.17;87.14
47811;BME280;33575;52.600;7.318;2023-05-24T02:21:07;102112.29;;;9.16;87.48
47811;BME280;33575;52.600;7.318;2023-05-24T02:23:37;102106.32;;;9.21;87.30
47811;BME280;33575;52.600;7.318;2023-05-24T02:26:07;102101.54;;;9.25;87.07
47811;BME280;33575;52.600;7.318;2023-05-24T02:28:37;102101.80;;;9.24;87.45
47811;BME280;33575;52.600;7.318;2023-05-24T02:31:08;102102.97;;;9.16;87.75
47811;BME280;33575;52.600;7.318;2023-05-24T02:33:38;102104.77;;;9.14;87.65
47811;BME280;33575;52.600;7.318;2023-05-24T02:36:09;102105.68;;;9.17;87.70
47811;BME280;33575;52.600;7.318;2023-05-24T02:38:39;102108.42;;;9.19;87.92
47811;BME280;33575;52.600;7.318;2023-05-24T02:41:09;102108.49;;;9.23;87.74
47811;BME280;33575;52.600;7.318;2023-05-24T02:43:40;102101.76;;;9.27;87.74
47811;BME280;33575;52.600;7.318;2023-05-24T02:46:12;102102.26;;;9.32;87.69
47811;BME280;33575;52.600;7.318;2023-05-24T02:48:42;102104.84;;;9.35;87.80
47811;BME280;33575;52.600;7.318;2023-05-24T02:51:12;102102.61;;;9.40;87.39
47811;BME280;33575;52.600;7.318;2023-05-24T02:53:43;102099.85;;;9.45;87.10
47811;BME280;33575;52.600;7.318;2023-05-24T02:56:13;102098.92;;;9.49;87.05
47811;BME280;33575;52.600;7.318;2023-05-24T02:58:44;102099.37;;;9.54;86.83
47811;BME280;33575;52.600;7.318;2023-05-24T03:01:14;102092.83;;;9.43;87.44
47811;BME280;33575;52.600;7.318;2023-05-24T03:03:45;102093.17;;;9.44;87.19
47811;BME280;33575;52.600;7.318;2023-05-24T03:06:15;102093.37;;;9.37;87.29
47811;BME280;33575;52.600;7.318;2023-05-24T03:08:46;102092.51;;;9.38;87.36
47811;BME280;33575;52.600;7.318;2023-05-24T03:11:16;102090.00;;;9.41;87.23
47811;BME280;33575;52.600;7.318;2023-05-24T03:13:47;102093.38;;;9.42;87.24
47811;BME280;33575;52.600;7.318;2023-05-24T03:16:17;102096.22;;;9.34;88.34
47811;BME280;33575;52.600;7.318;2023-05-24T03:18:48;102097.32;;;9.37;87.55
47811;BME280;33575;52.600;7.318;2023-05-24T03:21:18;102097.44;;;9.42;87.07
47811;BME280;33575;52.600;7.318;2023-05-24T03:23:49;102096.15;;;9.34;87.93
47811;BME280;33575;52.600;7.318;2023-05-24T03:26:19;102090.02;;;9.31;88.41
47811;BME280;33575;52.600;7.318;2023-05-24T03:28:50;102092.94;;;9.31;88.34
47811;BME280;33575;52.600;7.318;2023-05-24T03:31:21;102095.76;;;9.39;87.76
47811;BME280;33575;52.600;7.318;2023-05-24T03:33:51;102093.36;;;9.46;87.44
47811;BME280;33575;52.600;7.318;2023-05-24T03:36:21;102093.48;;;9.36;88.58
47811;BME280;33575;52.600;7.318;2023-05-24T03:38:52;102088.47;;;9.30;89.11
47811;BME280;33575;52.600;7.318;2023-05-24T03:41:23;102086.95;;;9.38;88.24
47811;BME280;33575;52.600;7.318;2023-05-24T03:43:53;102095.20;;;9.35;88.89
47811;BME280;33575;52.600;7.318;2023-05-24T03:46:24;102090.95;;;9.34;88.84
47811;BME280;33575;52.600;7.318;2023-05-24T03:48:54;102095.59;;;9.38;88.92
47811;BME280;33575;52.600;7.318;2023-05-24T03:51:25;102094.61;;;9.42;88.75
47811;BME280;33575;52.600;7.318;2023-05-24T03:53:55;102094.18;;;9.42;88.62
47811;BME280;33575;52.600;7.318;2023-05-24T03:56:26;102092.92;;;9.47;87.94
47811;BME280;33575;52.600;7.318;2023-05-24T03:58:56;102085.07;;;9.53;87.92
47811;BME280;33575;52.600;7.318;2023-05-24T04:01:32;102080.73;;;9.49;88.31
47811;BME280;33575;52.600;7.318;2023-05-24T04:03:57;102081.29;;;9.44;88.11
47811;BME280;33575;52.600;7.318;2023-05-24T04:06:28;102083.86;;;9.39;88.98
47811;BME280;33575;52.600;7.318;2023-05-24T04:08:59;102087.53;;;9.22;89.67
47811;BME280;33575;52.600;7.318;2023-05-24T04:11:29;102090.92;;;9.26;89.18
47811;BME280;33575;52.600;7.318;2023-05-24T04:14:00;102090.36;;;9.27;89.22
47811;BME280;33575;52.600;7.318;2023-05-24T04:16:30;102090.75;;;9.35;89.04
47811;BME280;33575;52.600;7.318;2023-05-24T04:19:01;102086.68;;;9.46;88.35
47811;BME280;33575;52.600;7.318;2023-05-24T04:21:31;102093.81;;;9.44;88.92
47811;BME280;33575;52.600;7.318;2023-05-24T04:24:02;102099.36;;;9.49;88.26
47811;BME280;33575;52.600;7.318;2023-05-24T04:26:33;102103.87;;;9.40;89.45
47811;BME280;33575;52.600;7.318;2023-05-24T04:29:03;102101.79;;;9.42;88.60
47811;BME280;33575;52.600;7.318;2023-05-24T04:31:33;102099.47;;;9.48;88.72
47811;BME280;33575;52.600;7.318;2023-05-24T04:34:04;102097.86;;;9.43;89.53
47811;BME280;33575;52.600;7.318;2023-05-24T04:36:34;102102.80;;;9.41;89.82
47811;BME280;33575;52.600;7.318;2023-05-24T04:39:05;102101.80;;;9.42;89.86
47811;BME280;33575;52.600;7.318;2023-05-24T04:41:35;102103.62;;;9.42;90.12
47811;BME280;33575;52.600;7.318;2023-05-24T04:44:05;102103.56;;;9.37;90.58
47811;BME280;33575;52.600;7.318;2023-05-24T04:46:36;102105.90;;;9.39;90.88
47811;BME280;33575;52.600;7.318;2023-05-24T04:49:06;102115.10;;;9.48;90.74
47811;BME280;33575;52.600;7.318;2023-05-24T04:51:37;102112.74;;;9.51;90.89
47811;BME280;33575;52.600;7.318;2023-05-24T04:54:07;102104.97;;;9.32;91.38
47811;BME280;33575;52.600;7.318;2023-05-24T04:56:38;102103.06;;;9.52;90.74
47811;BME280;33575;52.600;7.318;2023-05-24T04:59:09;102101.71;;;9.50;90.91
47811;BME280;33575;52.600;7.318;2023-05-24T05:01:39;102094.26;;;9.60;90.37
47811;BME280;33575;52.600;7.318;2023-05-24T05:04:10;102096.08;;;9.57;90.53
47811;BME280;33575;52.600;7.318;2023-05-24T05:06:41;102101.92;;;9.44;91.28
47811;BME280;33575;52.600;7.318;2023-05-24T05:09:11;102105.93;;;9.47;91.09
47811;BME280;33575;52.600;7.318;2023-05-24T05:11:42;102108.81;;;9.43;91.08
47811;BME280;33575;52.600;7.318;2023-05-24T05:14:12;102108.15;;;9.36;91.61
47811;BME280;33575;52.600;7.318;2023-05-24T05:16:43;102100.01;;;9.37;92.12
47811;BME280;33575;52.600;7.318;2023-05-24T05:19:13;102096.63;;;9.38;92.13
47811;BME280;33575;52.600;7.318;2023-05-24T05:21:44;102099.08;;;9.23;92.81
47811;BME280;33575;52.600;7.318;2023-05-24T05:24:14;102099.38;;;9.44;92.41
47811;BME280;33575;52.600;7.318;2023-05-24T05:26:44;102100.05;;;9.52;91.87
47811;BME280;33575;52.600;7.318;2023-05-24T05:29:15;102104.29;;;9.35;92.83
47811;BME280;33575;52.600;7.318;2023-05-24T05:31:46;102108.59;;;9.50;92.29
47811;BME280;33575;52.600;7.318;2023-05-24T05:34:16;102110.01;;;9.68;92.16
47811;BME280;33575;52.600;7.318;2023-05-24T05:36:46;102110.40;;;9.61;92.09
47811;BME280;33575;52.600;7.318;2023-05-24T05:39:17;102109.99;;;9.77;91.60
47811;BME280;33575;52.600;7.318;2023-05-24T05:41:48;102110.27;;;9.67;92.16
47811;BME280;33575;52.600;7.318;2023-05-24T05:44:18;102114.01;;;9.84;92.09
47811;BME280;33575;52.600;7.318;2023-05-24T05:46:48;102115.31;;;9.84;91.79
47811;BME280;33575;52.600;7.318;2023-05-24T05:49:19;102113.99;;;9.82;91.88
47811;BME280;33575;52.600;7.318;2023-05-24T05:51:49;102114.78;;;9.97;91.48
47811;BME280;33575;52.600;7.318;2023-05-24T05:54:20;102117.98;;;9.98;91.26
47811;BME280;33575;52.600;7.318;2023-05-24T05:56:50;102123.67;;;9.88;91.89
47811;BME280;33575;52.600;7.318;2023-05-24T05:59:21;102129.70;;;10.12;90.67
47811;BME280;33575;52.600;7.318;2023-05-24T06:01:51;102122.85;;;10.20;90.93
47811;BME280;33575;52.600;7.318;2023-05-24T06:04:21;102126.57;;;10.19;91.04
47811;BME280;33575;52.600;7.318;2023-05-24T06:06:52;102124.64;;;9.99;91.70
47811;BME280;33575;52.600;7.318;2023-05-24T06:09:22;102125.10;;;10.17;91.22
47811;BME280;33575;52.600;7.318;2023-05-24T06:11:52;102125.98;;;10.19;91.43
47811;BME280;33575;52.600;7.318;2023-05-24T06:14:23;102127.24;;;10.31;90.99
47811;BME280;33575;52.600;7.318;2023-05-24T06:16:53;102127.23;;;10.26;91.33
47811;BME280;33575;52.600;7.318;2023-05-24T06:19:24;102131.49;;;10.40;91.01
47811;BME280;33575;52.600;7.318;2023-05-24T06:21:54;102131.93;;;10.43;90.49
47811;BME280;33575;52.600;7.318;2023-05-24T06:24:25;102125.57;;;10.53;90.15
47811;BME280;33575;52.600;7.318;2023-05-24T06:26:55;102125.37;;;10.45;90.27
47811;BME280;33575;52.600;7.318;2023-05-24T06:29:25;102118.84;;;10.50;90.50
47811;BME280;33575;52.600;7.318;2023-05-24T06:31:56;102117.73;;;10.57;90.64
47811;BME280;33575;52.600;7.318;2023-05-24T06:34:26;102118.66;;;10.67;89.99
47811;BME280;33575;52.600;7.318;2023-05-24T06:36:57;102117.40;;;10.73;89.59
47811;BME280;33575;52.600;7.318;2023-05-24T06:39:27;102118.10;;;10.84;89.49
47811;BME280;33575;52.600;7.318;2023-05-24T06:41:58;102122.63;;;10.93;89.52
47811;BME280;33575;52.600;7.318;2023-05-24T06:44:28;102125.81;;;10.98;89.53
47811;BME280;33575;52.600;7.318;2023-05-24T06:46:59;102132.94;;;10.97;88.45
47811;BME280;33575;52.600;7.318;2023-05-24T06:49:29;102140.75;;;11.00;87.54
47811;BME280;33575;52.600;7.318;2023-05-24T06:52:00;102142.85;;;11.13;86.53
47811;BME280;33575;52.600;7.318;2023-05-24T06:54:30;102147.34;;;11.10;87.47
47811;BME280;33575;52.600;7.318;2023-05-24T06:57:00;102145.09;;;11.18;86.32
47811;BME280;33575;52.600;7.318;2023-05-24T06:59:31;102145.85;;;11.30;85.60
47811;BME280;33575;52.600;7.318;2023-05-24T07:02:05;102149.25;;;11.10;86.82
47811;BME280;33575;52.600;7.318;2023-05-24T07:04:32;102154.01;;;11.09;86.06
47811;BME280;33575;52.600;7.318;2023-05-24T07:07:03;102155.60;;;11.06;85.35
47811;BME280;33575;52.600;7.318;2023-05-24T07:09:33;102160.10;;;10.92;84.95
47811;BME280;33575;52.600;7.318;2023-05-24T07:12:04;102165.67;;;10.79;85.40
47811;BME280;33575;52.600;7.318;2023-05-24T07:14:33;102166.37;;;10.91;85.30
47811;BME280;33575;52.600;7.318;2023-05-24T07:17:04;102169.03;;;11.04;85.13
47811;BME280;33575;52.600;7.318;2023-05-24T07:19:34;102171.45;;;11.09;85.18
47811;BME280;33575;52.600;7.318;2023-05-24T07:22:05;102172.43;;;11.19;84.38
47811;BME280;33575;52.600;7.318;2023-05-24T07:24:35;102175.64;;;11.16;83.44
47811;BME280;33575;52.600;7.318;2023-05-24T07:27:06;102172.20;;;11.16;83.44
47811;BME280;33575;52.600;7.318;2023-05-24T07:29:36;102169.31;;;11.05;83.86
47811;BME280;33575;52.600;7.318;2023-05-24T07:32:07;102164.09;;;10.98;83.98
47811;BME280;33575;52.600;7.318;2023-05-24T07:34:38;102165.53;;;10.97;83.93
47811;BME280;33575;52.600;7.318;2023-05-24T07:37:08;102162.35;;;11.06;83.56
47811;BME280;33575;52.600;7.318;2023-05-24T07:39:39;102164.97;;;11.22;83.73
47811;BME280;33575;52.600;7.318;2023-05-24T07:42:10;102160.17;;;11.32;82.33
47811;BME280;33575;52.600;7.318;2023-05-24T07:44:40;102163.72;;;11.30;82.59
47811;BME280;33575;52.600;7.318;2023-05-24T07:47:10;102163.47;;;11.25;82.97
47811;BME280;33575;52.600;7.318;2023-05-24T07:49:41;102160.38;;;11.31;83.18
47811;BME280;33575;52.600;7.318;2023-05-24T07:52:12;102160.72;;;11.46;82.94
47811;BME280;33575;52.600;7.318;2023-05-24T07:54:42;102163.66;;;11.55;82.68
47811;BME280;33575;52.600;7.318;2023-05-24T07:57:12;102165.97;;;11.57;82.46
47811;BME280;33575;52.600;7.318;2023-05-24T07:59:42;102168.70;;;11.66;81.40
47811;BME280;33575;52.600;7.318;2023-05-24T08:02:13;102173.95;;;11.56;80.92
47811;BME280;33575;52.600;7.318;2023-05-24T08:04:44;102169.52;;;11.67;80.72
47811;BME280;33575;52.600;7.318;2023-05-24T08:07:14;102164.41;;;11.80;80.48
47811;BME280;33575;52.600;7.318;2023-05-24T08:09:45;102169.88;;;11.79;79.82
47811;BME280;33575;52.600;7.318;2023-05-24T08:12:18;102167.82;;;11.76;79.69
47811;BME280;33575;52.600;7.318;2023-05-24T08:14:45;102168.59;;;11.71;78.20
47811;BME280;33575;52.600;7.318;2023-05-24T08:17:16;102167.21;;;11.87;77.41
47811;BME280;33575;52.600;7.318;2023-05-24T08:19:46;102169.29;;;11.73;77.40
47811;BME280;33575;52.600;7.318;2023-05-24T08:22:17;102165.73;;;11.66;76.37
47811;BME280;33575;52.600;7.318;2023-05-24T08:24:47;102164.76;;;11.69;76.98
47811;BME280;33575;52.600;7.318;2023-05-24T08:27:18;102163.22;;;11.61;76.83
47811;BME280;33575;52.600;7.318;2023-05-24T08:29:48;102163.82;;;11.71;75.95
47811;BME280;33575;52.600;7.318;2023-05-24T08:32:19;102163.25;;;11.68;75.73
47811;BME280;33575;52.600;7.318;2023-05-24T08:34:49;102162.33;;;11.66;76.09
47811;BME280;33575;52.600;7.318;2023-05-24T08:37:20;102165.49;;;11.64;76.47
47811;BME280;33575;52.600;7.318;2023-05-24T08:39:50;102159.65;;;11.93;76.44
47811;BME280;33575;52.600;7.318;2023-05-24T08:42:23;102162.69;;;12.06;75.86
47811;BME280;33575;52.600;7.318;2023-05-24T08:44:57;102162.37;;;12.13;75.58
47811;BME280;33575;52.600;7.318;2023-05-24T08:47:22;102163.77;;;12.25;75.68
47811;BME280;33575;52.600;7.318;2023-05-24T08:49:52;102160.73;;;12.46;75.65
47811;BME280;33575;52.600;7.318;2023-05-24T08:52:23;102160.87;;;12.66;73.91
47811;BME280;33575;52.600;7.318;2023-05-24T08:54:53;102158.72;;;12.57;73.02
47811;BME280;33575;52.600;7.318;2023-05-24T08:57:23;102164.85;;;12.53;73.07
47811;BME280;33575;52.600;7.318;2023-05-24T08:59:54;102163.31;;;12.55;74.25
47811;BME280;33575;52.600;7.318;2023-05-24T09:02:25;102165.54;;;12.63;74.99
47811;BME280;33575;52.600;7.318;2023-05-24T09:04:56;102166.09;;;12.72;73.51
47811;BME280;33575;52.600;7.318;2023-05-24T09:07:26;102172.00;;;12.50;74.03
47811;BME280;33575;52.600;7.318;2023-05-24T09:09:59;102174.79;;;12.79;73.57
47811;BME280;33575;52.600;7.318;2023-05-24T09:12:32;102174.75;;;12.75;74.19
47811;BME280;33575;52.600;7.318;2023-05-24T09:14:57;102165.47;;;12.99;74.02
47811;BME280;33575;52.600;7.318;2023-05-24T09:17:28;102166.70;;;13.26;73.93
47811;BME280;33575;52.600;7.318;2023-05-24T09:19:58;102166.54;;;13.35;73.33
47811;BME280;33575;52.600;7.318;2023-05-24T09:22:28;102162.55;;;13.62;72.70
47811;BME280;33575;52.600;7.318;2023-05-24T09:25:00;102160.08;;;13.33;70.57
47811;BME280;33575;52.600;7.318;2023-05-24T09:27:31;102158.46;;;13.59;71.53
47811;BME280;33575;52.600;7.318;2023-05-24T09:29:59;102164.51;;;13.42;72.79
47811;BME280;33575;52.600;7.318;2023-05-24T09:32:30;102166.68;;;13.28;73.55
47811;BME280;33575;52.600;7.318;2023-05-24T09:35:00;102171.68;;;13.27;73.37
47811;BME280;33575;52.600;7.318;2023-05-24T09:37:35;102177.16;;;13.03;74.43
47811;BME280;33575;52.600;7.318;2023-05-24T09:40:01;102174.46;;;12.83;75.03
47811;BME280;33575;52.600;7.318;2023-05-24T09:42:31;102176.83;;;12.93;74.90
47811;BME280;33575;52.600;7.318;2023-05-24T09:45:04;102179.48;;;12.90;74.82
47811;BME280;33575;52.600;7.318;2023-05-24T09:47:34;102178.79;;;13.13;74.05
47811;BME280;33575;52.600;7.318;2023-05-24T09:50:05;102180.47;;;12.99;74.33
47811;BME280;33575;52.600;7.318;2023-05-24T09:52:37;102181.63;;;12.99;73.44
47811;BME280;33575;52.600;7.318;2023-05-24T09:55:10;102184.11;;;13.14;73.20
47811;BME280;33575;52.600;7.318;2023-05-24T09:57:34;102180.26;;;13.03;73.67
47811;BME280;33575;52.600;7.318;2023-05-24T10:00:06;102181.90;;;13.16;72.94
47811;BME280;33575;52.600;7.318;2023-05-24T10:02:40;102184.49;;;13.18;73.66
47811;BME280;33575;52.600;7.318;2023-05-24T10:05:06;102184.20;;;13.42;73.02
47811;BME280;33575;52.600;7.318;2023-05-24T10:07:36;102183.45;;;13.35;72.49
47811;BME280;33575;52.600;7.318;2023-05-24T10:10:09;102185.52;;;13.50;72.02
47811;BME280;33575;52.600;7.318;2023-05-24T10:12:37;102182.75;;;13.30;71.49
47811;BME280;33575;52.600;7.318;2023-05-24T10:15:09;102188.60;;;13.38;72.22
47811;BME280;33575;52.600;7.318;2023-05-24T10:17:37;102184.79;;;13.27;71.92
47811;BME280;33575;52.600;7.318;2023-05-24T10:20:09;102183.89;;;13.49;72.08
47811;BME280;33575;52.600;7.318;2023-05-24T10:22:43;102183.93;;;13.65;72.50
47811;BME280;33575;52.600;7.318;2023-05-24T10:25:10;102188.72;;;13.46;70.67
47811;BME280;33575;52.600;7.318;2023-05-24T10:27:39;102192.07;;;13.63;71.76
47811;BME280;33575;52.600;7.318;2023-05-24T10:30:17;102191.42;;;13.61;70.55
47811;BME280;33575;52.600;7.318;2023-05-24T10:32:41;102198.34;;;13.55;71.39
47811;BME280;33575;52.600;7.318;2023-05-24T10:35:11;102193.86;;;13.60;70.98
47811;BME280;33575;52.600;7.318;2023-05-24T10:37:41;102197.12;;;13.46;70.74
47811;BME280;33575;52.600;7.318;2023-05-24T10:40:16;102194.25;;;13.54;70.85
47811;BME280;33575;52.600;7.318;2023-05-24T10:42:42;102197.89;;;13.64;71.50
47811;BME280;33575;52.600;7.318;2023-05-24T10:47:42;102195.06;;;13.80;70.57
47811;BME280;33575;52.600;7.318;2023-05-24T10:50:16;102189.24;;;13.90;70.82
47811;BME280;33575;52.600;7.318;2023-05-24T10:52:43;102190.15;;;13.89;70.63
47811;BME280;33575;52.600;7.318;2023-05-24T10:55:13;102189.96;;;13.91;69.38
47811;BME280;33575;52.600;7.318;2023-05-24T10:57:43;102185.71;;;13.96;69.87
47811;BME280;33575;52.600;7.318;2023-05-24T11:00:25;102184.73;;;13.95;70.24
47811;BME280;33575;52.600;7.318;2023-05-24T11:02:47;102183.12;;;13.90;70.31
47811;BME280;33575;52.600;7.318;2023-05-24T11:05:14;102185.54;;;13.99;70.49
47811;BME280;33575;52.600;7.318;2023-05-24T11:07:45;102186.36;;;14.16;70.77
47811;BME280;33575;52.600;7.318;2023-05-24T11:10:15;102190.92;;;14.23;70.83
47811;BME280;33575;52.600;7.318;2023-05-24T11:12:45;102189.53;;;14.31;69.83
47811;BME280;33575;52.600;7.318;2023-05-24T11:15:22;102187.40;;;14.44;68.96
47811;BME280;33575;52.600;7.318;2023-05-24T11:20:17;102190.47;;;14.02;70.59
47811;BME280;33575;52.600;7.318;2023-05-24T11:22:48;102188.82;;;14.01;71.36
47811;BME280;33575;52.600;7.318;2023-05-24T11:25:18;102184.55;;;14.06;71.39
47811;BME280;33575;52.600;7.318;2023-05-24T11:27:48;102187.39;;;13.91;70.93
47811;BME280;33575;52.600;7.318;2023-05-24T11:30:19;102190.10;;;13.92;71.88
47811;BME280;33575;52.600;7.318;2023-05-24T11:32:49;102189.56;;;13.93;71.48
47811;BME280;33575;52.600;7.318;2023-05-24T11:35:19;102187.69;;;13.79;71.82
47811;BME280;33575;52.600;7.318;2023-05-24T11:37:50;102185.15;;;13.90;71.92
47811;BME280;33575;52.600;7.318;2023-05-24T11:40:20;102184.38;;;13.86;71.71
47811;BME280;33575;52.600;7.318;2023-05-24T11:42:51;102182.85;;;13.85;72.19
47811;BME280;33575;52.600;7.318;2023-05-24T11:45:21;102185.32;;;13.97;71.57
47811;BME280;33575;52.600;7.318;2023-05-24T11:47:55;102182.96;;;14.12;70.49
47811;BME280;33575;52.600;7.318;2023-05-24T11:50:22;102186.75;;;14.23;71.10
47811;BME280;33575;52.600;7.318;2023-05-24T11:52:52;102179.88;;;14.42;70.39
47811;BME280;33575;52.600;7.318;2023-05-24T11:55:23;102183.54;;;14.58;69.98
47811;BME280;33575;52.600;7.318;2023-05-24T11:57:57;102183.35;;;14.64;70.57
47811;BME280;33575;52.600;7.318;2023-05-24T12:00:24;102181.49;;;14.59;69.76
47811;BME280;33575;52.600;7.318;2023-05-24T12:02:57;102181.65;;;14.55;69.68
47811;BME280;33575;52.600;7.318;2023-05-24T12:05:25;102180.81;;;14.79;69.83
47811;BME280;33575;52.600;7.318;2023-05-24T12:08:01;102183.69;;;14.48;70.27
47811;BME280;33575;52.600;7.318;2023-05-24T12:10:25;102180.77;;;14.52;70.21
47811;BME280;33575;52.600;7.318;2023-05-24T12:12:56;102176.45;;;14.60;68.74
47811;BME280;33575;52.600;7.318;2023-05-24T12:15:26;102178.32;;;14.62;68.47
47811;BME280;33575;52.600;7.318;2023-05-24T12:17:58;102174.38;;;14.66;68.27
47811;BME280;33575;52.600;7.318;2023-05-24T12:20:28;102179.87;;;14.63;68.95
47811;BME280;33575;52.600;7.318;2023-05-24T12:23:00;102176.75;;;14.51;69.53
47811;BME280;33575;52.600;7.318;2023-05-24T12:25:28;102183.88;;;14.25;70.07
47811;BME280;33575;52.600;7.318;2023-05-24T12:27:58;102182.69;;;14.44;70.40
47811;BME280;33575;52.600;7.318;2023-05-24T12:30:29;102189.15;;;14.21;72.08
47811;BME280;33575;52.600;7.318;2023-05-24T12:32:59;102187.72;;;14.31;71.69
47811;BME280;33575;52.600;7.318;2023-05-24T12:35:30;102189.26;;;14.28;70.92
47811;BME280;33575;52.600;7.318;2023-05-24T12:38:00;102185.77;;;14.35;69.79
47811;BME280;33575;52.600;7.318;2023-05-24T12:40:32;102178.13;;;14.52;69.94
47811;BME280;33575;52.600;7.318;2023-05-24T12:43:02;102176.46;;;14.63;70.49
47811;BME280;33575;52.600;7.318;2023-05-24T12:45:31;102175.16;;;14.69;68.94
47811;BME280;33575;52.600;7.318;2023-05-24T12:48:02;102174.38;;;14.86;69.74
47811;BME280;33575;52.600;7.318;2023-05-24T12:50:32;102171.43;;;14.95;68.96
47811;BME280;33575;52.600;7.318;2023-05-24T12:53:03;102164.37;;;15.19;68.77
47811;BME280;33575;52.600;7.318;2023-05-24T12:55:33;102170.67;;;15.37;68.58
47811;BME280;33575;52.600;7.318;2023-05-24T12:58:03;102166.12;;;15.59;67.43
47811;BME280;33575;52.600;7.318;2023-05-24T13:00:34;102171.20;;;15.72;66.51
47811;BME280;33575;52.600;7.318;2023-05-24T13:03:04;102172.72;;;15.71;66.16
47811;BME280;33575;52.600;7.318;2023-05-24T13:05:35;102175.71;;;15.65;66.99
47811;BME280;33575;52.600;7.318;2023-05-24T13:08:05;102175.79;;;15.77;66.33
47811;BME280;33575;52.600;7.318;2023-05-24T13:10:35;102178.75;;;15.81;65.27
47811;BME280;33575;52.600;7.318;2023-05-24T13:13:06;102180.78;;;15.71;65.90
47811;BME280;33575;52.600;7.318;2023-05-24T13:15:36;102183.27;;;15.66;67.22